createdAt,value
2022-09-06T00:01:25.042Z,92163.06
2022-09-06T00:04:28.125Z,92162.31
2022-09-06T00:07:31.214Z,92166.22
2022-09-06T00:10:34.329Z,92184.66
2022-09-06T00:13:38.105Z,92179.56
2022-09-06T00:16:41.314Z,92180.41
2022-09-06T00:19:44.405Z,92177.06
2022-09-06T00:22:47.474Z,92179.94
2022-09-06T00:25:50.418Z,92179.00
2022-09-06T00:28:53.445Z,92174.06
2022-09-06T00:31:56.496Z,92172.16
2022-09-06T00:34:59.526Z,92170.16
2022-09-06T00:38:03.490Z,92174.47
2022-09-06T00:41:08.472Z,92165.03
2022-09-06T00:44:11.587Z,92160.63
2022-09-06T00:47:14.650Z,92172.44
2022-09-06T00:50:19.922Z,92170.97
2022-09-06T00:53:23.231Z,92163.75
2022-09-06T00:56:27.855Z,92155.72
2022-09-06T00:59:34.162Z,92158.31
2022-09-06T01:02:37.990Z,92163.06
2022-09-06T01:05:46.570Z,92165.00
2022-09-06T01:09:08.220Z,92163.28
2022-09-06T01:12:30.578Z,92171.97
2022-09-06T01:15:51.481Z,92164.03
2022-09-06T01:19:20.394Z,92173.44
2022-09-06T01:22:35.438Z,92176.31
2022-09-06T01:25:48.433Z,92168.63
2022-09-06T01:28:53.634Z,92171.56
2022-09-06T01:32:17.858Z,92174.00
2022-09-06T01:35:47.627Z,92166.19
2022-09-06T01:38:50.904Z,92166.91
2022-09-06T01:41:55.313Z,92181.25
2022-09-06T01:45:19.980Z,92180.84
2022-09-06T01:48:35.473Z,92170.06
2022-09-06T01:51:56.998Z,92178.53
2022-09-06T01:55:15.447Z,92166.38
2022-09-06T01:58:21.347Z,92174.44
2022-09-06T02:01:46.810Z,92177.34
2022-09-06T02:05:05.439Z,92185.47
2022-09-06T02:08:24.094Z,92183.03
2022-09-06T02:11:30.124Z,92179.84
2022-09-06T02:14:40.399Z,92174.91
2022-09-06T02:17:51.766Z,92173.13
2022-09-06T02:20:57.063Z,92171.84
2022-09-06T02:24:09.332Z,92163.03
2022-09-06T02:27:13.502Z,92162.81
2022-09-06T02:30:16.758Z,92170.31
2022-09-06T02:33:26.996Z,92167.34
2022-09-06T02:36:31.868Z,92157.34
2022-09-06T02:39:35.448Z,92170.06
2022-09-06T02:42:38.994Z,92157.38
2022-09-06T02:45:42.579Z,92156.09
2022-09-06T02:48:45.780Z,92150.09
2022-09-06T02:51:48.891Z,92150.59
2022-09-06T02:54:52.887Z,92149.88
2022-09-06T02:57:56.160Z,92137.88
2022-09-06T03:00:59.443Z,92141.91
2022-09-06T03:04:08.489Z,92138.66
2022-09-06T03:07:11.740Z,92130.69
2022-09-06T03:10:15.202Z,92125.66
2022-09-06T03:13:21.666Z,92134.53
2022-09-06T03:16:24.797Z,92128.97
2022-09-06T03:19:27.933Z,92128.50
2022-09-06T03:22:31.706Z,92126.03
2022-09-06T03:25:34.896Z,92123.63
2022-09-06T03:28:37.938Z,92128.59
2022-09-06T03:31:41.036Z,92120.50
2022-09-06T03:34:44.093Z,92121.38
2022-09-06T03:37:47.029Z,92119.88
2022-09-06T03:40:50.557Z,92132.66
2022-09-06T03:43:53.604Z,92119.88
2022-09-06T03:46:56.885Z,92131.44
2022-09-06T03:49:59.931Z,92137.78
2022-09-06T03:53:02.941Z,92131.56
2022-09-06T03:56:06.423Z,92132.56
2022-09-06T03:59:09.680Z,92127.75
2022-09-06T04:02:12.877Z,92114.03
2022-09-06T04:05:18.756Z,92118.97
2022-09-06T04:08:24.456Z,92113.00
2022-09-06T04:11:27.601Z,92108.97
2022-09-06T04:14:31.176Z,92102.91
2022-09-06T04:17:34.269Z,92098.03
2022-09-06T04:20:37.303Z,92097.03
2022-09-06T04:23:40.456Z,92108.84
2022-09-06T04:26:43.539Z,92094.72
2022-09-06T04:29:46.589Z,92088.22
2022-09-06T04:32:49.650Z,92092.41
2022-09-06T04:35:59.701Z,92096.34
2022-09-06T04:39:02.931Z,92092.63
2022-09-06T04:42:06.239Z,92094.13
2022-09-06T04:45:09.773Z,92095.56
2022-09-06T04:48:12.841Z,92082.47
2022-09-06T04:51:16.135Z,92087.91
2022-09-06T04:54:19.155Z,92091.44
2022-09-06T04:57:22.247Z,92081.84
2022-09-06T05:00:25.263Z,92088.59
2022-09-06T05:03:28.266Z,92091.78
2022-09-06T05:06:31.372Z,92088.00
2022-09-06T05:09:35.261Z,92091.47
2022-09-06T05:12:42.187Z,92090.25
2022-09-06T05:15:47.272Z,92083.81
2022-09-06T05:18:50.273Z,92078.56
2022-09-06T05:21:53.382Z,92077.50
2022-09-06T05:24:56.412Z,92077.50
2022-09-06T05:27:59.486Z,92083.19
2022-09-06T05:31:09.640Z,92071.47
2022-09-06T05:34:14.047Z,92075.94
2022-09-06T05:37:17.075Z,92070.22
2022-09-06T05:40:20.131Z,92068.25
2022-09-06T05:43:23.279Z,92064.81
2022-09-06T05:46:27.205Z,92063.22
2022-09-06T05:49:31.516Z,92068.38
2022-09-06T05:52:35.735Z,92073.00
2022-09-06T05:55:42.732Z,92064.06
2022-09-06T05:58:46.106Z,92060.63
2022-09-06T06:01:55.914Z,92057.22
2022-09-06T06:04:59.155Z,92061.25
2022-09-06T06:08:02.301Z,92056.13
2022-09-06T06:11:05.499Z,92060.34
2022-09-06T06:14:09.253Z,92057.38
2022-09-06T06:17:12.240Z,92056.44
2022-09-06T06:20:15.620Z,92053.25
2022-09-06T06:23:18.641Z,92053.06
2022-09-06T06:26:21.897Z,92043.97
2022-09-06T06:29:25.942Z,92044.97
2022-09-06T06:32:29.111Z,92041.16
2022-09-06T06:35:32.131Z,92036.78
2022-09-06T06:38:39.154Z,92028.28
2022-09-06T06:41:42.197Z,92032.81
2022-09-06T06:45:02.636Z,92036.66
2022-09-06T06:48:05.768Z,92042.75
2022-09-06T06:51:12.267Z,92034.53
2022-09-06T06:54:15.319Z,92034.84
2022-09-06T06:57:18.469Z,92036.59
2022-09-06T07:00:24.043Z,92018.38
2022-09-06T07:03:29.337Z,92030.69
2022-09-06T07:13:34.685Z,92032.56
2022-09-06T07:16:37.754Z,92036.13
2022-09-06T07:26:31.310Z,92050.53
2022-09-06T07:29:34.288Z,92053.81
2022-09-06T07:32:37.516Z,92054.97
2022-09-06T07:35:40.602Z,92042.94
2022-09-06T07:38:43.671Z,92053.19
2022-09-06T07:41:46.725Z,92057.88
2022-09-06T07:44:49.794Z,92040.34
2022-09-06T07:47:59.440Z,92048.31
2022-09-06T07:51:12.925Z,92059.31
2022-09-06T07:54:31.720Z,92060.53
2022-09-06T07:57:34.856Z,92055.13
2022-09-06T08:00:38.945Z,92054.38
2022-09-06T08:03:42.227Z,92061.03
2022-09-06T08:10:13.202Z,92051.00
2022-09-06T08:13:17.791Z,92059.78
2022-09-06T08:16:21.375Z,92054.97
2022-09-06T08:19:24.675Z,92053.94
2022-09-06T08:22:27.841Z,92060.28
2022-09-06T08:25:31.111Z,92054.09
2022-09-06T08:28:34.360Z,92053.59
2022-09-06T08:31:40.521Z,92055.41
2022-09-06T08:34:43.936Z,92047.16
2022-09-06T08:37:49.288Z,92054.38
2022-09-06T08:40:55.681Z,92052.69
2022-09-06T08:47:30.276Z,92049.97
2022-09-06T08:50:38.469Z,92056.16
2022-09-06T08:53:49.119Z,92052.88
2022-09-06T08:57:17.884Z,92062.84
2022-09-06T09:00:21.891Z,92058.06
2022-09-06T09:03:33.604Z,92061.00
2022-09-06T09:06:39.839Z,92061.91
2022-09-06T09:09:43.237Z,92056.19
2022-09-06T09:12:48.928Z,92058.59
2022-09-06T09:15:52.060Z,92062.00
2022-09-06T09:19:02.748Z,92056.19
2022-09-06T09:22:06.041Z,92065.97
2022-09-06T09:25:13.375Z,92058.88
2022-09-06T09:28:24.491Z,92067.09
2022-09-06T09:31:42.766Z,92055.06
2022-09-06T09:34:46.059Z,92072.81
2022-09-06T09:37:52.963Z,92073.22
2022-09-06T09:41:05.023Z,92072.06
2022-09-06T09:44:18.166Z,92062.28
2022-09-06T09:47:32.555Z,92068.25
2022-09-06T09:50:36.192Z,92078.00
2022-09-06T09:53:52.163Z,92073.03
2022-09-06T09:56:57.568Z,92087.38
2022-09-06T10:00:07.207Z,92080.41
2022-09-06T10:03:15.654Z,92079.38
2022-09-06T10:10:00.581Z,92084.66
2022-09-06T10:13:36.256Z,92086.94
2022-09-06T10:16:45.474Z,92091.34
2022-09-06T10:19:49.392Z,92099.81
2022-09-06T10:23:11.468Z,92102.72
2022-09-06T10:26:29.699Z,92106.50
2022-09-06T10:29:56.603Z,92108.34
2022-09-06T10:33:27.227Z,92117.53
2022-09-06T10:36:36.502Z,92113.44
2022-09-06T10:39:48.710Z,92124.88
2022-09-06T10:42:54.443Z,92122.91
2022-09-06T10:46:09.945Z,92124.09
2022-09-06T10:49:18.598Z,92129.88
2022-09-06T10:52:38.579Z,92135.97
2022-09-06T10:55:47.815Z,92134.59
2022-09-06T11:02:48.589Z,92135.78
2022-09-06T11:06:00.232Z,92135.06
2022-09-06T11:09:30.509Z,92136.94
2022-09-06T11:12:46.931Z,92135.59
2022-09-06T11:16:09.379Z,92147.16
2022-09-06T11:19:24.384Z,92154.16
2022-09-06T11:22:54.763Z,92154.13
2022-09-06T11:26:21.670Z,92165.16
2022-09-06T11:29:28.056Z,92168.38
2022-09-06T11:32:49.203Z,92158.28
2022-09-06T11:35:52.978Z,92157.81
2022-09-06T11:39:01.858Z,92159.31
2022-09-06T11:42:08.902Z,92172.84
2022-09-06T11:45:21.941Z,92173.34
2022-09-06T11:48:24.964Z,92172.34
2022-09-06T11:51:39.878Z,92168.09
2022-09-06T11:54:47.976Z,92175.75
2022-09-06T11:57:56.328Z,92173.59
2022-09-06T12:01:21.438Z,92170.72
2022-09-06T12:04:24.849Z,92180.28
2022-09-06T12:07:33.124Z,92176.66
2022-09-06T12:10:50.181Z,92179.13
2022-09-06T12:14:06.349Z,92179.00
2022-09-06T12:17:10.329Z,92183.56
2022-09-06T12:20:55.613Z,92183.91
2022-09-06T12:23:59.270Z,92192.22
2022-09-06T12:27:20.135Z,92202.97
2022-09-06T12:30:38.118Z,92203.75
2022-09-06T12:33:41.436Z,92205.50
2022-09-06T12:37:01.861Z,92208.63
2022-09-06T12:40:07.986Z,92210.22
2022-09-06T12:43:14.309Z,92214.81
2022-09-06T12:46:17.668Z,92205.00
2022-09-06T12:49:23.043Z,92206.13
2022-09-06T12:52:26.109Z,92204.75
2022-09-06T12:55:38.375Z,92210.19
2022-09-06T12:58:41.700Z,92214.28
2022-09-06T13:01:51.370Z,92219.00
2022-09-06T13:05:01.971Z,92221.84
2022-09-06T13:08:05.468Z,92226.94
2022-09-06T13:11:14.287Z,92232.69
2022-09-06T13:14:25.145Z,92231.75
2022-09-06T13:17:31.360Z,92231.38
2022-09-06T13:20:34.553Z,92242.16
2022-09-06T13:23:42.989Z,92247.66
2022-09-06T13:26:46.114Z,92237.91
2022-09-06T13:29:57.867Z,92234.63
2022-09-06T13:33:01.891Z,92235.91
2022-09-06T13:36:16.551Z,92238.47
2022-09-06T13:39:34.431Z,92242.47
2022-09-06T13:42:38.351Z,92239.16
2022-09-06T13:45:41.537Z,92239.84
2022-09-06T13:48:45.280Z,92249.16
2022-09-06T13:51:48.624Z,92251.84
2022-09-06T13:54:51.674Z,92263.22
2022-09-06T13:57:54.833Z,92272.28
2022-09-06T14:00:59.242Z,92279.34
2022-09-06T14:04:03.016Z,92280.69
2022-09-06T14:07:06.783Z,92295.19
2022-09-06T14:10:12.098Z,92300.38
2022-09-06T14:13:17.155Z,92293.69
2022-09-06T14:16:20.315Z,92293.97
2022-09-06T14:19:24.216Z,92286.06
2022-09-06T14:22:27.348Z,92296.09
2022-09-06T14:25:31.039Z,92283.16
2022-09-06T14:28:36.966Z,92286.84
2022-09-06T14:31:41.662Z,92289.09
2022-09-06T14:34:44.542Z,92281.25
2022-09-06T14:37:47.713Z,92271.69
2022-09-06T14:40:50.954Z,92271.28
2022-09-06T14:43:56.175Z,92260.38
2022-09-06T14:47:00.625Z,92256.19
2022-09-06T14:50:04.509Z,92255.97
2022-09-06T14:53:24.055Z,92267.34
2022-09-06T14:56:30.984Z,92273.91
2022-09-06T14:59:34.038Z,92272.66
2022-09-06T15:02:37.721Z,92272.41
2022-09-06T15:05:40.748Z,92272.25
2022-09-06T15:08:44.118Z,92271.50
2022-09-06T15:11:51.941Z,92272.06
2022-09-06T15:14:54.990Z,92287.16
2022-09-06T15:17:59.045Z,92277.22
2022-09-06T15:21:16.827Z,92289.31
2022-09-06T15:24:20.297Z,92284.97
2022-09-06T15:27:23.922Z,92284.47
2022-09-06T15:30:26.968Z,92289.84
2022-09-06T15:33:34.623Z,92290.94
2022-09-06T15:36:38.873Z,92287.38
2022-09-06T15:39:42.012Z,92281.06
2022-09-06T15:42:45.695Z,92279.34
2022-09-06T15:45:50.666Z,92297.38
2022-09-06T15:48:54.487Z,92298.88
2022-09-06T15:52:00.046Z,92290.00
2022-09-06T15:55:21.360Z,92282.94
2022-09-06T15:58:28.609Z,92288.09
2022-09-06T16:01:34.560Z,92298.63
2022-09-06T16:04:37.759Z,92302.50
2022-09-06T16:07:43.736Z,92295.38
2022-09-06T16:10:47.331Z,92300.94
2022-09-06T16:13:50.551Z,92304.50
2022-09-06T16:16:55.339Z,92304.72
2022-09-06T16:20:02.286Z,92297.75
2022-09-06T16:23:05.479Z,92298.00
2022-09-06T16:26:10.564Z,92296.19
2022-09-06T16:29:16.840Z,92288.34
2022-09-06T16:32:20.043Z,92300.31
2022-09-06T16:35:23.246Z,92303.66
2022-09-06T16:38:26.489Z,92317.41
2022-09-06T16:41:43.066Z,92331.94
2022-09-06T16:44:48.366Z,92330.16
2022-09-06T16:47:51.470Z,92325.22
2022-09-06T16:50:55.067Z,92329.19
2022-09-06T16:53:58.847Z,92322.19
2022-09-06T16:57:02.664Z,92323.59
2022-09-06T17:00:06.769Z,92304.06
2022-09-06T17:03:10.095Z,92293.94
2022-09-06T17:06:13.733Z,92286.34
2022-09-06T17:09:20.631Z,92275.16
2022-09-06T17:12:24.627Z,92280.09
2022-09-06T17:15:47.559Z,92271.34
2022-09-06T17:18:54.175Z,92266.50
2022-09-06T17:21:57.263Z,92260.53
2022-09-06T17:25:00.632Z,92265.84
2022-09-06T17:28:03.969Z,92256.78
2022-09-06T17:31:08.231Z,92261.47
2022-09-06T17:34:11.402Z,92255.09
2022-09-06T17:37:14.960Z,92263.09
2022-09-06T17:40:18.085Z,92254.16
2022-09-06T17:43:21.948Z,92254.97
2022-09-06T17:46:28.858Z,92252.47
2022-09-06T17:49:32.409Z,92253.69
2022-09-06T17:52:37.714Z,92253.22
2022-09-06T17:55:42.473Z,92253.56
2022-09-06T17:58:55.900Z,92254.28
2022-09-06T18:01:58.981Z,92264.66
2022-09-06T18:05:02.221Z,92266.50
2022-09-06T18:08:06.217Z,92274.28
2022-09-06T18:11:25.053Z,92279.53
2022-09-06T18:14:29.077Z,92290.09
2022-09-06T18:17:33.065Z,92290.25
2022-09-06T18:20:36.244Z,92278.59
2022-09-06T18:23:39.275Z,92269.47
2022-09-06T18:26:43.617Z,92263.69
2022-09-06T18:29:46.636Z,92259.09
2022-09-06T18:32:49.804Z,92259.00
2022-09-06T18:35:53.191Z,92245.81
2022-09-06T18:38:56.287Z,92256.22
2022-09-06T18:42:02.079Z,92251.00
2022-09-06T18:45:05.475Z,92234.03
2022-09-06T18:48:09.089Z,92241.97
2022-09-06T18:51:15.532Z,92231.69
2022-09-06T18:54:19.072Z,92230.00
2022-09-06T18:57:22.192Z,92247.19
2022-09-06T19:00:26.412Z,92252.50
2022-09-06T19:03:29.651Z,92251.84
2022-09-06T19:06:34.394Z,92259.72
2022-09-06T19:09:37.569Z,92256.50
2022-09-06T19:12:40.944Z,92229.81
2022-09-06T19:15:45.112Z,92220.78
2022-09-06T19:18:48.287Z,92229.34
2022-09-06T19:21:51.740Z,92225.44
2022-09-06T19:24:55.047Z,92216.41
2022-09-06T19:27:58.098Z,92226.88
2022-09-06T19:31:07.966Z,92217.66
2022-09-06T19:34:12.773Z,92235.94
2022-09-06T19:37:17.953Z,92225.38
2022-09-06T19:40:21.211Z,92218.78
2022-09-06T19:43:24.369Z,92204.47
2022-09-06T19:46:28.445Z,92197.94
2022-09-06T19:49:31.582Z,92200.59
2022-09-06T19:52:34.675Z,92209.28
2022-09-06T19:55:37.731Z,92211.28
2022-09-06T19:58:41.942Z,92205.41
2022-09-06T20:01:46.895Z,92205.44
2022-09-06T20:04:50.076Z,92202.69
2022-09-06T20:07:53.173Z,92179.53
2022-09-06T20:10:58.617Z,92195.59
2022-09-06T20:14:01.970Z,92200.06
2022-09-06T20:17:31.814Z,92192.09
2022-09-06T20:20:28.502Z,92200.66
2022-09-06T20:23:34.787Z,92208.63
2022-09-06T20:26:38.408Z,92209.84
2022-09-06T20:29:41.646Z,92201.25
2022-09-06T20:32:44.723Z,92191.34
2022-09-06T20:35:59.190Z,92182.28
2022-09-06T20:39:02.856Z,92179.16
2022-09-06T20:42:06.173Z,92186.22
2022-09-06T20:45:09.911Z,92187.81
2022-09-06T20:48:13.108Z,92183.56
2022-09-06T20:51:19.618Z,92192.00
2022-09-06T20:54:22.675Z,92192.03
2022-09-06T20:57:25.787Z,92198.09
2022-09-06T21:00:28.865Z,92218.66
2022-09-06T21:03:31.958Z,92226.88
2022-09-06T21:06:37.160Z,92238.84
2022-09-06T21:09:40.172Z,92246.09
2022-09-06T21:12:43.301Z,92250.88
2022-09-06T21:15:48.906Z,92269.53
2022-09-06T21:19:03.578Z,92258.69
2022-09-06T21:22:06.709Z,92253.63
2022-09-06T21:25:10.423Z,92260.75
2022-09-06T21:28:13.527Z,92255.63
2022-09-06T21:31:19.473Z,92248.53
2022-09-06T21:34:23.065Z,92236.25
2022-09-06T21:37:26.235Z,92233.72
2022-09-06T21:40:29.413Z,92227.28
2022-09-06T21:43:33.264Z,92230.63
2022-09-06T21:46:38.706Z,92227.28
2022-09-06T21:49:41.844Z,92231.13
2022-09-06T21:52:44.912Z,92239.44
2022-09-06T21:55:47.930Z,92241.22
2022-09-06T21:58:58.608Z,92239.72
2022-09-06T22:02:01.809Z,92235.59
2022-09-06T22:05:07.286Z,92250.53
2022-09-06T22:08:10.348Z,92257.03
2022-09-06T22:11:18.914Z,92232.22
2022-09-06T22:14:21.985Z,92223.44
2022-09-06T22:17:25.094Z,92245.81
2022-09-06T22:20:28.199Z,92243.16
2022-09-06T22:23:31.853Z,92249.06
2022-09-06T22:26:37.404Z,92236.72
2022-09-06T22:29:40.464Z,92216.41
2022-09-06T22:32:43.525Z,92220.38
2022-09-06T22:35:46.850Z,92214.38
2022-09-06T22:38:53.610Z,92235.19
2022-09-06T22:41:56.724Z,92227.97
2022-09-06T22:44:59.785Z,92247.56
2022-09-06T22:48:03.019Z,92250.06
2022-09-06T22:51:09.450Z,92255.13
2022-09-06T22:54:12.573Z,92266.78
2022-09-06T22:57:16.381Z,92261.03
2022-09-06T23:00:19.566Z,92256.25
2022-09-06T23:03:23.309Z,92252.50
2022-09-06T23:06:26.993Z,92258.97
2022-09-06T23:09:30.049Z,92239.78
2022-09-06T23:12:33.116Z,92229.19
2022-09-06T23:15:37.656Z,92210.00
2022-09-06T23:18:40.693Z,92233.88
2022-09-06T23:21:43.782Z,92247.41
2022-09-06T23:24:46.927Z,92249.16
2022-09-06T23:27:50.300Z,92243.91
2022-09-06T23:30:53.356Z,92230.66
2022-09-06T23:33:58.125Z,92229.94
2022-09-06T23:37:01.206Z,92213.09
2022-09-06T23:40:08.832Z,92212.28
2022-09-06T23:43:12.223Z,92226.25
2022-09-06T23:46:15.815Z,92225.00
2022-09-06T23:49:18.891Z,92242.00
2022-09-06T23:52:22.233Z,92238.72
2022-09-06T23:55:25.317Z,92243.16
2022-09-06T23:58:28.636Z,92241.50
